sensor_id;sensor_type;location;lat;lon;timestamp;P1;durP1;ratioP1;P2;durP2;ratioP2
68583;SDS011;55557;49.220;11.150;2023-06-22T00:00:27;13.57;;;5.53;;
68583;SDS011;55557;49.220;11.150;2023-06-22T00:02:53;8.33;;;5.87;;
68583;SDS011;55557;49.220;11.150;2023-06-22T00:05:19;9.57;;;6.30;;
68583;SDS011;55557;49.220;11.150;2023-06-22T00:07:45;12.67;;;6.70;;
68583;SDS011;55557;49.220;11.150;2023-06-22T00:10:11;11.27;;;6.20;;
68583;SDS011;55557;49.220;11.150;2023-06-22T00:12:37;6.30;;;5.13;;
68583;SDS011;55557;49.220;11.150;2023-06-22T00:15:03;9.93;;;5.20;;
68583;SDS011;55557;49.220;11.150;2023-06-22T00:17:29;6.73;;;5.53;;
68583;SDS011;55557;49.220;11.150;2023-06-22T00:19:55;8.97;;;6.00;;
68583;SDS011;55557;49.220;11.150;2023-06-22T00:22:23;7.27;;;5.40;;
68583;SDS011;55557;49.220;11.150;2023-06-22T00:24:53;7.50;;;5.20;;
68583;SDS011;55557;49.220;11.150;2023-06-22T00:27:19;6.90;;;5.30;;
68583;SDS011;55557;49.220;11.150;2023-06-22T00:29:45;8.03;;;5.53;;
68583;SDS011;55557;49.220;11.150;2023-06-22T00:32:10;7.23;;;5.23;;
68583;SDS011;55557;49.220;11.150;2023-06-22T00:34:36;8.43;;;5.40;;
68583;SDS011;55557;49.220;11.150;2023-06-22T00:37:02;7.93;;;5.37;;
68583;SDS011;55557;49.220;11.150;2023-06-22T00:39:29;7.90;;;5.20;;
68583;SDS011;55557;49.220;11.150;2023-06-22T00:41:56;10.60;;;5.60;;
68583;SDS011;55557;49.220;11.150;2023-06-22T00:44:22;7.97;;;6.20;;
68583;SDS011;55557;49.220;11.150;2023-06-22T00:46:48;11.67;;;6.03;;
68583;SDS011;55557;49.220;11.150;2023-06-22T00:49:14;6.83;;;5.57;;
68583;SDS011;55557;49.220;11.150;2023-06-22T00:51:40;9.83;;;5.97;;
68583;SDS011;55557;49.220;11.150;2023-06-22T00:54:10;6.17;;;5.10;;
68583;SDS011;55557;49.220;11.150;2023-06-22T00:56:38;7.47;;;5.33;;
68583;SDS011;55557;49.220;11.150;2023-06-22T00:59:04;12.30;;;5.97;;
68583;SDS011;55557;49.220;11.150;2023-06-22T01:01:30;7.40;;;5.83;;
68583;SDS011;55557;49.220;11.150;2023-06-22T01:03:58;8.60;;;5.60;;
68583;SDS011;55557;49.220;11.150;2023-06-22T01:06:29;8.03;;;5.03;;
68583;SDS011;55557;49.220;11.150;2023-06-22T01:09:06;12.17;;;5.27;;
68583;SDS011;55557;49.220;11.150;2023-06-22T01:11:41;13.63;;;5.50;;
68583;SDS011;55557;49.220;11.150;2023-06-22T01:14:19;6.90;;;6.10;;
68583;SDS011;55557;49.220;11.150;2023-06-22T01:16:46;6.70;;;5.43;;
68583;SDS011;55557;49.220;11.150;2023-06-22T01:21:58;9.03;;;5.27;;
68583;SDS011;55557;49.220;11.150;2023-06-22T01:24:32;9.07;;;5.30;;
68583;SDS011;55557;49.220;11.150;2023-06-22T01:27:12;14.50;;;5.73;;
68583;SDS011;55557;49.220;11.150;2023-06-22T01:29:46;6.03;;;4.83;;
68583;SDS011;55557;49.220;11.150;2023-06-22T01:32:13;6.97;;;5.17;;
68583;SDS011;55557;49.220;11.150;2023-06-22T01:34:40;7.83;;;5.80;;
68583;SDS011;55557;49.220;11.150;2023-06-22T01:37:06;19.27;;;8.73;;
68583;SDS011;55557;49.220;11.150;2023-06-22T01:39:33;8.77;;;5.93;;
68583;SDS011;55557;49.220;11.150;2023-06-22T01:41:59;8.53;;;5.70;;
68583;SDS011;55557;49.220;11.150;2023-06-22T01:44:26;8.63;;;5.73;;
68583;SDS011;55557;49.220;11.150;2023-06-22T01:46:52;8.00;;;5.67;;
68583;SDS011;55557;49.220;11.150;2023-06-22T01:49:18;9.53;;;5.87;;
68583;SDS011;55557;49.220;11.150;2023-06-22T01:51:44;7.10;;;5.13;;
68583;SDS011;55557;49.220;11.150;2023-06-22T01:54:10;7.20;;;5.93;;
68583;SDS011;55557;49.220;11.150;2023-06-22T01:56:36;6.77;;;5.23;;
68583;SDS011;55557;49.220;11.150;2023-06-22T01:59:14;7.83;;;6.07;;
68583;SDS011;55557;49.220;11.150;2023-06-22T02:01:48;5.83;;;4.73;;
68583;SDS011;55557;49.220;11.150;2023-06-22T02:04:19;8.30;;;5.20;;
68583;SDS011;55557;49.220;11.150;2023-06-22T02:06:45;6.50;;;5.47;;
68583;SDS011;55557;49.220;11.150;2023-06-22T02:09:14;9.67;;;5.80;;
68583;SDS011;55557;49.220;11.150;2023-06-22T02:11:41;7.43;;;5.67;;
68583;SDS011;55557;49.220;11.150;2023-06-22T02:14:08;9.80;;;6.03;;
68583;SDS011;55557;49.220;11.150;2023-06-22T02:16:34;9.57;;;6.00;;
68583;SDS011;55557;49.220;11.150;2023-06-22T02:19:02;10.57;;;5.67;;
68583;SDS011;55557;49.220;11.150;2023-06-22T02:21:29;7.80;;;5.90;;
68583;SDS011;55557;49.220;11.150;2023-06-22T02:23:56;10.27;;;6.40;;
68583;SDS011;55557;49.220;11.150;2023-06-22T02:26:22;8.90;;;6.27;;
68583;SDS011;55557;49.220;11.150;2023-06-22T02:28:48;8.10;;;5.43;;
68583;SDS011;55557;49.220;11.150;2023-06-22T02:31:14;8.90;;;6.30;;
68583;SDS011;55557;49.220;11.150;2023-06-22T02:33:41;8.07;;;5.87;;
68583;SDS011;55557;49.220;11.150;2023-06-22T02:36:07;7.20;;;5.33;;
68583;SDS011;55557;49.220;11.150;2023-06-22T02:38:34;8.33;;;5.60;;
68583;SDS011;55557;49.220;11.150;2023-06-22T02:41:01;8.23;;;6.00;;
68583;SDS011;55557;49.220;11.150;2023-06-22T02:43:27;8.40;;;6.83;;
68583;SDS011;55557;49.220;11.150;2023-06-22T02:45:53;8.00;;;5.77;;
68583;SDS011;55557;49.220;11.150;2023-06-22T02:48:19;8.77;;;5.97;;
68583;SDS011;55557;49.220;11.150;2023-06-22T02:50:45;10.00;;;6.13;;
68583;SDS011;55557;49.220;11.150;2023-06-22T02:53:11;7.60;;;5.57;;
68583;SDS011;55557;49.220;11.150;2023-06-22T02:55:37;9.37;;;6.10;;
68583;SDS011;55557;49.220;11.150;2023-06-22T02:58:04;9.43;;;6.10;;
68583;SDS011;55557;49.220;11.150;2023-06-22T03:00:31;7.10;;;5.53;;
68583;SDS011;55557;49.220;11.150;2023-06-22T03:02:57;11.03;;;5.10;;
68583;SDS011;55557;49.220;11.150;2023-06-22T03:05:23;8.33;;;6.13;;
68583;SDS011;55557;49.220;11.150;2023-06-22T03:07:49;7.43;;;5.53;;
68583;SDS011;55557;49.220;11.150;2023-06-22T03:10:16;8.37;;;5.40;;
68583;SDS011;55557;49.220;11.150;2023-06-22T03:12:42;8.10;;;6.07;;
68583;SDS011;55557;49.220;11.150;2023-06-22T03:15:12;10.60;;;5.63;;
68583;SDS011;55557;49.220;11.150;2023-06-22T03:17:38;8.17;;;5.97;;
68583;SDS011;55557;49.220;11.150;2023-06-22T03:20:05;9.33;;;6.53;;
68583;SDS011;55557;49.220;11.150;2023-06-22T03:22:36;8.97;;;6.50;;
68583;SDS011;55557;49.220;11.150;2023-06-22T03:25:02;9.87;;;6.33;;
68583;SDS011;55557;49.220;11.150;2023-06-22T03:27:29;11.50;;;6.73;;
68583;SDS011;55557;49.220;11.150;2023-06-22T03:29:56;10.23;;;7.20;;
68583;SDS011;55557;49.220;11.150;2023-06-22T03:32:22;8.13;;;6.87;;
68583;SDS011;55557;49.220;11.150;2023-06-22T03:34:49;14.77;;;7.83;;
68583;SDS011;55557;49.220;11.150;2023-06-22T03:37:15;14.20;;;6.80;;
68583;SDS011;55557;49.220;11.150;2023-06-22T03:39:41;15.57;;;7.47;;
68583;SDS011;55557;49.220;11.150;2023-06-22T03:42:07;10.80;;;6.27;;
68583;SDS011;55557;49.220;11.150;2023-06-22T03:44:33;11.40;;;7.50;;
68583;SDS011;55557;49.220;11.150;2023-06-22T03:47:01;8.77;;;7.00;;
68583;SDS011;55557;49.220;11.150;2023-06-22T03:49:27;8.80;;;7.17;;
68583;SDS011;55557;49.220;11.150;2023-06-22T03:51:53;10.17;;;7.57;;
68583;SDS011;55557;49.220;11.150;2023-06-22T03:54:19;10.87;;;7.47;;
68583;SDS011;55557;49.220;11.150;2023-06-22T03:56:45;9.87;;;7.40;;
68583;SDS011;55557;49.220;11.150;2023-06-22T03:59:11;10.87;;;7.17;;
68583;SDS011;55557;49.220;11.150;2023-06-22T04:01:37;10.67;;;7.87;;
68583;SDS011;55557;49.220;11.150;2023-06-22T04:04:03;11.60;;;7.97;;
68583;SDS011;55557;49.220;11.150;2023-06-22T04:06:29;10.47;;;6.60;;
68583;SDS011;55557;49.220;11.150;2023-06-22T04:08:55;10.33;;;7.63;;
68583;SDS011;55557;49.220;11.150;2023-06-22T04:11:21;9.97;;;7.63;;
68583;SDS011;55557;49.220;11.150;2023-06-22T04:13:47;9.67;;;7.07;;
68583;SDS011;55557;49.220;11.150;2023-06-22T04:16:14;13.53;;;8.37;;
68583;SDS011;55557;49.220;11.150;2023-06-22T04:18:40;10.33;;;7.37;;
68583;SDS011;55557;49.220;11.150;2023-06-22T04:21:06;10.67;;;7.27;;
68583;SDS011;55557;49.220;11.150;2023-06-22T04:23:33;10.03;;;7.23;;
68583;SDS011;55557;49.220;11.150;2023-06-22T04:25:59;10.97;;;6.57;;
68583;SDS011;55557;49.220;11.150;2023-06-22T04:28:25;9.67;;;6.67;;
68583;SDS011;55557;49.220;11.150;2023-06-22T04:30:51;8.63;;;6.90;;
68583;SDS011;55557;49.220;11.150;2023-06-22T04:33:17;11.47;;;6.87;;
68583;SDS011;55557;49.220;11.150;2023-06-22T04:35:46;9.47;;;6.60;;
68583;SDS011;55557;49.220;11.150;2023-06-22T04:38:13;10.30;;;6.77;;
68583;SDS011;55557;49.220;11.150;2023-06-22T04:40:39;9.63;;;6.70;;
68583;SDS011;55557;49.220;11.150;2023-06-22T04:43:05;10.67;;;7.50;;
68583;SDS011;55557;49.220;11.150;2023-06-22T04:45:32;11.07;;;6.93;;
68583;SDS011;55557;49.220;11.150;2023-06-22T04:47:58;10.97;;;7.30;;
68583;SDS011;55557;49.220;11.150;2023-06-22T04:50:24;10.13;;;7.40;;
68583;SDS011;55557;49.220;11.150;2023-06-22T04:52:50;12.20;;;7.47;;
68583;SDS011;55557;49.220;11.150;2023-06-22T04:55:17;10.83;;;7.90;;
68583;SDS011;55557;49.220;11.150;2023-06-22T04:57:48;10.53;;;8.23;;
68583;SDS011;55557;49.220;11.150;2023-06-22T05:00:17;13.57;;;7.90;;
68583;SDS011;55557;49.220;11.150;2023-06-22T05:02:48;11.97;;;8.00;;
68583;SDS011;55557;49.220;11.150;2023-06-22T05:05:14;14.23;;;7.87;;
68583;SDS011;55557;49.220;11.150;2023-06-22T05:07:44;15.57;;;8.43;;
68583;SDS011;55557;49.220;11.150;2023-06-22T05:10:13;12.50;;;7.83;;
68583;SDS011;55557;49.220;11.150;2023-06-22T05:12:39;13.80;;;8.10;;
68583;SDS011;55557;49.220;11.150;2023-06-22T05:15:06;10.97;;;7.20;;
68583;SDS011;55557;49.220;11.150;2023-06-22T05:17:33;10.87;;;8.10;;
68583;SDS011;55557;49.220;11.150;2023-06-22T05:19:59;12.00;;;7.13;;
68583;SDS011;55557;49.220;11.150;2023-06-22T05:22:25;11.20;;;7.17;;
68583;SDS011;55557;49.220;11.150;2023-06-22T05:24:51;10.70;;;8.43;;
68583;SDS011;55557;49.220;11.150;2023-06-22T05:27:17;12.07;;;8.73;;
68583;SDS011;55557;49.220;11.150;2023-06-22T05:29:43;10.67;;;7.10;;
68583;SDS011;55557;49.220;11.150;2023-06-22T05:32:09;10.43;;;8.00;;
68583;SDS011;55557;49.220;11.150;2023-06-22T05:34:35;9.50;;;7.53;;
68583;SDS011;55557;49.220;11.150;2023-06-22T05:37:02;12.70;;;8.23;;
68583;SDS011;55557;49.220;11.150;2023-06-22T05:39:28;12.47;;;8.10;;
68583;SDS011;55557;49.220;11.150;2023-06-22T05:41:54;12.63;;;7.87;;
68583;SDS011;55557;49.220;11.150;2023-06-22T05:44:20;11.50;;;8.00;;
68583;SDS011;55557;49.220;11.150;2023-06-22T05:46:46;9.83;;;7.37;;
68583;SDS011;55557;49.220;11.150;2023-06-22T05:49:13;10.87;;;7.90;;
68583;SDS011;55557;49.220;11.150;2023-06-22T05:51:39;8.80;;;6.90;;
68583;SDS011;55557;49.220;11.150;2023-06-22T05:54:05;15.40;;;7.70;;
68583;SDS011;55557;49.220;11.150;2023-06-22T05:56:33;12.93;;;7.30;;
68583;SDS011;55557;49.220;11.150;2023-06-22T05:58:59;12.47;;;7.87;;
68583;SDS011;55557;49.220;11.150;2023-06-22T06:01:25;13.33;;;6.93;;
68583;SDS011;55557;49.220;11.150;2023-06-22T06:03:51;10.70;;;7.03;;
68583;SDS011;55557;49.220;11.150;2023-06-22T06:06:18;10.00;;;6.50;;
68583;SDS011;55557;49.220;11.150;2023-06-22T06:08:53;8.57;;;6.53;;
68583;SDS011;55557;49.220;11.150;2023-06-22T06:11:20;10.27;;;6.63;;
68583;SDS011;55557;49.220;11.150;2023-06-22T06:13:46;13.07;;;6.30;;
68583;SDS011;55557;49.220;11.150;2023-06-22T06:16:12;9.13;;;6.27;;
68583;SDS011;55557;49.220;11.150;2023-06-22T06:18:38;14.30;;;7.23;;
68583;SDS011;55557;49.220;11.150;2023-06-22T06:21:04;12.20;;;6.20;;
68583;SDS011;55557;49.220;11.150;2023-06-22T06:23:31;10.07;;;6.40;;
68583;SDS011;55557;49.220;11.150;2023-06-22T06:25:57;10.43;;;6.60;;
68583;SDS011;55557;49.220;11.150;2023-06-22T06:28:24;10.93;;;5.23;;
68583;SDS011;55557;49.220;11.150;2023-06-22T06:30:50;12.03;;;6.10;;
68583;SDS011;55557;49.220;11.150;2023-06-22T06:33:17;14.33;;;6.50;;
68583;SDS011;55557;49.220;11.150;2023-06-22T06:35:43;20.70;;;6.90;;
68583;SDS011;55557;49.220;11.150;2023-06-22T06:38:09;14.00;;;5.93;;
68583;SDS011;55557;49.220;11.150;2023-06-22T06:40:35;10.30;;;6.93;;
68583;SDS011;55557;49.220;11.150;2023-06-22T06:43:02;11.00;;;6.50;;
68583;SDS011;55557;49.220;11.150;2023-06-22T06:45:29;9.60;;;6.13;;
68583;SDS011;55557;49.220;11.150;2023-06-22T06:47:58;11.70;;;6.30;;
68583;SDS011;55557;49.220;11.150;2023-06-22T06:50:24;11.83;;;6.17;;
68583;SDS011;55557;49.220;11.150;2023-06-22T06:52:50;10.07;;;5.80;;
68583;SDS011;55557;49.220;11.150;2023-06-22T06:55:16;9.20;;;5.77;;
68583;SDS011;55557;49.220;11.150;2023-06-22T06:57:42;7.67;;;5.80;;
68583;SDS011;55557;49.220;11.150;2023-06-22T07:00:09;9.50;;;5.33;;
68583;SDS011;55557;49.220;11.150;2023-06-22T07:02:40;14.57;;;5.70;;
68583;SDS011;55557;49.220;11.150;2023-06-22T07:05:06;8.47;;;5.27;;
68583;SDS011;55557;49.220;11.150;2023-06-22T07:07:33;9.57;;;5.33;;
68583;SDS011;55557;49.220;11.150;2023-06-22T07:09:59;13.60;;;5.40;;
68583;SDS011;55557;49.220;11.150;2023-06-22T07:12:25;8.30;;;4.97;;
68583;SDS011;55557;49.220;11.150;2023-06-22T07:14:56;10.60;;;5.23;;
68583;SDS011;55557;49.220;11.150;2023-06-22T07:17:26;7.63;;;4.70;;
68583;SDS011;55557;49.220;11.150;2023-06-22T07:19:52;9.77;;;4.87;;
68583;SDS011;55557;49.220;11.150;2023-06-22T07:22:18;6.37;;;4.60;;
68583;SDS011;55557;49.220;11.150;2023-06-22T07:24:44;8.20;;;4.30;;
68583;SDS011;55557;49.220;11.150;2023-06-22T07:27:10;5.33;;;4.80;;
68583;SDS011;55557;49.220;11.150;2023-06-22T07:29:37;4.87;;;4.23;;
68583;SDS011;55557;49.220;11.150;2023-06-22T07:32:05;5.83;;;4.40;;
68583;SDS011;55557;49.220;11.150;2023-06-22T07:34:31;10.70;;;4.63;;
68583;SDS011;55557;49.220;11.150;2023-06-22T07:36:59;6.17;;;4.30;;
68583;SDS011;55557;49.220;11.150;2023-06-22T07:39:25;10.40;;;4.60;;
68583;SDS011;55557;49.220;11.150;2023-06-22T07:41:51;7.10;;;4.20;;
68583;SDS011;55557;49.220;11.150;2023-06-22T07:44:17;6.37;;;4.20;;
68583;SDS011;55557;49.220;11.150;2023-06-22T07:46:44;8.57;;;4.20;;
68583;SDS011;55557;49.220;11.150;2023-06-22T07:49:10;6.67;;;4.10;;
68583;SDS011;55557;49.220;11.150;2023-06-22T07:51:36;5.83;;;3.97;;
68583;SDS011;55557;49.220;11.150;2023-06-22T07:54:02;7.33;;;4.30;;
68583;SDS011;55557;49.220;11.150;2023-06-22T07:56:28;4.37;;;3.50;;
68583;SDS011;55557;49.220;11.150;2023-06-22T07:58:54;5.97;;;3.67;;
68583;SDS011;55557;49.220;11.150;2023-06-22T08:01:23;7.27;;;4.13;;
68583;SDS011;55557;49.220;11.150;2023-06-22T08:03:49;7.17;;;4.17;;
68583;SDS011;55557;49.220;11.150;2023-06-22T08:06:16;7.93;;;4.23;;
68583;SDS011;55557;49.220;11.150;2023-06-22T08:08:42;7.23;;;4.07;;
68583;SDS011;55557;49.220;11.150;2023-06-22T08:11:08;5.63;;;4.20;;
68583;SDS011;55557;49.220;11.150;2023-06-22T08:13:34;9.67;;;3.40;;
68583;SDS011;55557;49.220;11.150;2023-06-22T08:16:00;4.73;;;3.43;;
68583;SDS011;55557;49.220;11.150;2023-06-22T08:18:26;9.10;;;4.03;;
68583;SDS011;55557;49.220;11.150;2023-06-22T08:20:52;6.70;;;3.13;;
68583;SDS011;55557;49.220;11.150;2023-06-22T08:23:18;9.90;;;4.27;;
68583;SDS011;55557;49.220;11.150;2023-06-22T08:25:45;10.03;;;3.60;;
68583;SDS011;55557;49.220;11.150;2023-06-22T08:28:11;5.83;;;3.57;;
68583;SDS011;55557;49.220;11.150;2023-06-22T08:30:38;6.77;;;3.67;;
68583;SDS011;55557;49.220;11.150;2023-06-22T08:33:04;8.63;;;4.27;;
68583;SDS011;55557;49.220;11.150;2023-06-22T08:35:30;8.03;;;3.83;;
68583;SDS011;55557;49.220;11.150;2023-06-22T08:37:56;8.67;;;3.57;;
68583;SDS011;55557;49.220;11.150;2023-06-22T08:40:23;4.50;;;3.07;;
68583;SDS011;55557;49.220;11.150;2023-06-22T08:42:49;5.80;;;3.73;;
68583;SDS011;55557;49.220;11.150;2023-06-22T08:45:15;4.70;;;3.30;;
68583;SDS011;55557;49.220;11.150;2023-06-22T08:47:41;7.07;;;3.63;;
68583;SDS011;55557;49.220;11.150;2023-06-22T08:50:11;5.53;;;3.50;;
68583;SDS011;55557;49.220;11.150;2023-06-22T08:52:38;16.93;;;3.47;;
68583;SDS011;55557;49.220;11.150;2023-06-22T08:55:06;8.70;;;3.50;;
68583;SDS011;55557;49.220;11.150;2023-06-22T08:57:33;8.13;;;3.63;;
68583;SDS011;55557;49.220;11.150;2023-06-22T08:59:59;6.60;;;3.57;;
68583;SDS011;55557;49.220;11.150;2023-06-22T09:02:25;8.67;;;4.30;;
68583;SDS011;55557;49.220;11.150;2023-06-22T09:04:55;9.70;;;3.40;;
68583;SDS011;55557;49.220;11.150;2023-06-22T09:07:24;4.63;;;3.33;;
68583;SDS011;55557;49.220;11.150;2023-06-22T09:09:50;9.10;;;3.90;;
68583;SDS011;55557;49.220;11.150;2023-06-22T09:12:17;10.60;;;3.43;;
68583;SDS011;55557;49.220;11.150;2023-06-22T09:14:45;7.03;;;3.90;;
68583;SDS011;55557;49.220;11.150;2023-06-22T09:17:12;9.70;;;3.60;;
68583;SDS011;55557;49.220;11.150;2023-06-22T09:19:38;6.93;;;3.80;;
68583;SDS011;55557;49.220;11.150;2023-06-22T09:22:04;8.17;;;3.30;;
68583;SDS011;55557;49.220;11.150;2023-06-22T09:24:31;4.30;;;3.43;;
68583;SDS011;55557;49.220;11.150;2023-06-22T09:26:57;4.67;;;3.07;;
68583;SDS011;55557;49.220;11.150;2023-06-22T09:29:24;7.30;;;3.57;;
68583;SDS011;55557;49.220;11.150;2023-06-22T09:31:50;7.23;;;3.57;;
68583;SDS011;55557;49.220;11.150;2023-06-22T09:34:18;7.40;;;3.93;;
68583;SDS011;55557;49.220;11.150;2023-06-22T09:36:45;6.83;;;2.93;;
68583;SDS011;55557;49.220;11.150;2023-06-22T09:39:11;6.60;;;3.20;;
68583;SDS011;55557;49.220;11.150;2023-06-22T09:41:37;6.23;;;3.33;;
68583;SDS011;55557;49.220;11.150;2023-06-22T09:44:03;11.20;;;3.80;;
68583;SDS011;55557;49.220;11.150;2023-06-22T09:46:29;9.23;;;3.53;;
68583;SDS011;55557;49.220;11.150;2023-06-22T09:48:55;5.90;;;3.50;;
68583;SDS011;55557;49.220;11.150;2023-06-22T09:51:22;6.17;;;3.40;;
68583;SDS011;55557;49.220;11.150;2023-06-22T09:53:48;8.03;;;3.40;;
68583;SDS011;55557;49.220;11.150;2023-06-22T09:56:15;4.93;;;3.37;;
68583;SDS011;55557;49.220;11.150;2023-06-22T09:58:44;4.33;;;3.40;;
68583;SDS011;55557;49.220;11.150;2023-06-22T10:01:11;7.80;;;3.63;;
68583;SDS011;55557;49.220;11.150;2023-06-22T10:03:39;6.13;;;3.73;;
68583;SDS011;55557;49.220;11.150;2023-06-22T10:06:06;8.00;;;3.20;;
68583;SDS011;55557;49.220;11.150;2023-06-22T10:08:32;7.07;;;3.83;;
68583;SDS011;55557;49.220;11.150;2023-06-22T10:10:58;6.77;;;3.40;;
68583;SDS011;55557;49.220;11.150;2023-06-22T10:13:24;6.27;;;3.50;;
68583;SDS011;55557;49.220;11.150;2023-06-22T10:15:50;5.30;;;3.93;;
68583;SDS011;55557;49.220;11.150;2023-06-22T10:18:20;5.87;;;3.57;;
68583;SDS011;55557;49.220;11.150;2023-06-22T10:20:47;8.40;;;4.00;;
68583;SDS011;55557;49.220;11.150;2023-06-22T10:23:17;10.20;;;4.53;;
68583;SDS011;55557;49.220;11.150;2023-06-22T10:25:43;9.50;;;4.00;;
68583;SDS011;55557;49.220;11.150;2023-06-22T10:28:09;9.77;;;3.90;;
68583;SDS011;55557;49.220;11.150;2023-06-22T10:30:35;8.40;;;3.60;;
68583;SDS011;55557;49.220;11.150;2023-06-22T10:33:01;7.50;;;3.83;;
68583;SDS011;55557;49.220;11.150;2023-06-22T10:35:27;8.60;;;3.80;;
68583;SDS011;55557;49.220;11.150;2023-06-22T10:37:54;9.23;;;4.20;;
68583;SDS011;55557;49.220;11.150;2023-06-22T10:40:21;9.60;;;4.17;;
68583;SDS011;55557;49.220;11.150;2023-06-22T10:42:47;9.90;;;4.10;;
68583;SDS011;55557;49.220;11.150;2023-06-22T10:45:15;12.23;;;3.47;;
68583;SDS011;55557;49.220;11.150;2023-06-22T10:47:41;6.07;;;3.73;;
68583;SDS011;55557;49.220;11.150;2023-06-22T10:50:07;7.87;;;4.00;;
68583;SDS011;55557;49.220;11.150;2023-06-22T10:52:33;6.30;;;3.30;;
68583;SDS011;55557;49.220;11.150;2023-06-22T10:54:59;7.33;;;3.43;;
68583;SDS011;55557;49.220;11.150;2023-06-22T10:57:25;6.57;;;4.17;;
68583;SDS011;55557;49.220;11.150;2023-06-22T10:59:51;6.30;;;4.07;;
68583;SDS011;55557;49.220;11.150;2023-06-22T11:02:17;8.03;;;3.80;;
68583;SDS011;55557;49.220;11.150;2023-06-22T11:04:44;8.93;;;4.00;;
68583;SDS011;55557;49.220;11.150;2023-06-22T11:07:11;13.10;;;3.90;;
68583;SDS011;55557;49.220;11.150;2023-06-22T11:09:37;9.60;;;4.20;;
68583;SDS011;55557;49.220;11.150;2023-06-22T11:12:04;10.83;;;4.00;;
68583;SDS011;55557;49.220;11.150;2023-06-22T11:14:30;14.07;;;4.37;;
68583;SDS011;55557;49.220;11.150;2023-06-22T11:16:58;8.73;;;3.80;;
68583;SDS011;55557;49.220;11.150;2023-06-22T11:19:24;9.13;;;3.80;;
68583;SDS011;55557;49.220;11.150;2023-06-22T11:21:50;8.53;;;4.23;;
68583;SDS011;55557;49.220;11.150;2023-06-22T11:24:16;13.83;;;4.63;;
68583;SDS011;55557;49.220;11.150;2023-06-22T11:26:43;7.60;;;3.83;;
68583;SDS011;55557;49.220;11.150;2023-06-22T11:29:09;7.27;;;3.57;;
68583;SDS011;55557;49.220;11.150;2023-06-22T11:31:35;9.80;;;4.27;;
68583;SDS011;55557;49.220;11.150;2023-06-22T11:34:01;12.00;;;4.87;;
68583;SDS011;55557;49.220;11.150;2023-06-22T11:36:28;10.60;;;3.80;;
68583;SDS011;55557;49.220;11.150;2023-06-22T11:38:57;6.70;;;3.70;;
68583;SDS011;55557;49.220;11.150;2023-06-22T11:41:23;11.03;;;3.77;;
68583;SDS011;55557;49.220;11.150;2023-06-22T11:43:50;8.37;;;4.17;;
68583;SDS011;55557;49.220;11.150;2023-06-22T11:46:16;10.77;;;3.57;;
68583;SDS011;55557;49.220;11.150;2023-06-22T11:48:42;7.50;;;3.60;;
68583;SDS011;55557;49.220;11.150;2023-06-22T11:51:08;6.73;;;3.70;;
68583;SDS011;55557;49.220;11.150;2023-06-22T11:53:37;8.33;;;3.67;;
68583;SDS011;55557;49.220;11.150;2023-06-22T11:56:07;7.60;;;3.77;;
68583;SDS011;55557;49.220;11.150;2023-06-22T11:58:33;10.50;;;3.83;;
68583;SDS011;55557;49.220;11.150;2023-06-22T12:00:59;6.87;;;3.70;;
68583;SDS011;55557;49.220;11.150;2023-06-22T12:03:25;10.90;;;4.17;;
68583;SDS011;55557;49.220;11.150;2023-06-22T12:05:51;12.48;;;4.22;;
68583;SDS011;55557;49.220;11.150;2023-06-22T12:08:17;6.50;;;3.80;;
68583;SDS011;55557;49.220;11.150;2023-06-22T12:10:45;10.15;;;3.80;;
68583;SDS011;55557;49.220;11.150;2023-06-22T12:13:11;6.68;;;2.97;;
68583;SDS011;55557;49.220;11.150;2023-06-22T12:15:37;7.25;;;3.75;;
68583;SDS011;55557;49.220;11.150;2023-06-22T12:18:03;12.75;;;3.80;;
68583;SDS011;55557;49.220;11.150;2023-06-22T12:20:29;9.13;;;3.65;;
68583;SDS011;55557;49.220;11.150;2023-06-22T12:22:55;11.88;;;3.42;;
68583;SDS011;55557;49.220;11.150;2023-06-22T12:25:23;12.32;;;4.00;;
68583;SDS011;55557;49.220;11.150;2023-06-22T12:27:49;7.07;;;3.33;;
68583;SDS011;55557;49.220;11.150;2023-06-22T12:30:15;11.57;;;4.10;;
68583;SDS011;55557;49.220;11.150;2023-06-22T12:32:41;9.23;;;4.15;;
68583;SDS011;55557;49.220;11.150;2023-06-22T12:35:07;11.20;;;3.47;;
68583;SDS011;55557;49.220;11.150;2023-06-22T12:37:38;7.47;;;4.28;;
68583;SDS011;55557;49.220;11.150;2023-06-22T12:40:05;8.63;;;3.95;;
68583;SDS011;55557;49.220;11.150;2023-06-22T12:42:31;6.10;;;2.97;;
68583;SDS011;55557;49.220;11.150;2023-06-22T12:44:57;10.35;;;3.95;;
68583;SDS011;55557;49.220;11.150;2023-06-22T12:47:23;10.55;;;3.97;;
68583;SDS011;55557;49.220;11.150;2023-06-22T12:49:49;11.35;;;3.88;;
68583;SDS011;55557;49.220;11.150;2023-06-22T12:52:15;10.40;;;3.90;;
68583;SDS011;55557;49.220;11.150;2023-06-22T12:54:41;12.35;;;4.20;;
68583;SDS011;55557;49.220;11.150;2023-06-22T12:57:07;8.70;;;3.40;;
68583;SDS011;55557;49.220;11.150;2023-06-22T12:59:33;5.57;;;3.15;;
68583;SDS011;55557;49.220;11.150;2023-06-22T13:01:59;10.00;;;4.13;;
68583;SDS011;55557;49.220;11.150;2023-06-22T13:04:25;9.43;;;3.47;;
68583;SDS011;55557;49.220;11.150;2023-06-22T13:06:51;8.15;;;3.65;;
68583;SDS011;55557;49.220;11.150;2023-06-22T13:09:17;8.73;;;4.00;;
68583;SDS011;55557;49.220;11.150;2023-06-22T13:11:44;11.32;;;3.92;;
68583;SDS011;55557;49.220;11.150;2023-06-22T13:14:10;9.27;;;4.40;;
68583;SDS011;55557;49.220;11.150;2023-06-22T13:16:36;10.10;;;3.60;;
68583;SDS011;55557;49.220;11.150;2023-06-22T13:19:02;9.15;;;4.20;;
68583;SDS011;55557;49.220;11.150;2023-06-22T13:21:28;10.57;;;3.83;;
68583;SDS011;55557;49.220;11.150;2023-06-22T13:23:54;7.57;;;3.97;;
68583;SDS011;55557;49.220;11.150;2023-06-22T13:26:21;8.43;;;4.22;;
68583;SDS011;55557;49.220;11.150;2023-06-22T13:28:47;11.63;;;3.97;;
68583;SDS011;55557;49.220;11.150;2023-06-22T13:31:13;9.33;;;3.60;;
68583;SDS011;55557;49.220;11.150;2023-06-22T13:33:39;11.10;;;3.80;;
68583;SDS011;55557;49.220;11.150;2023-06-22T13:36:06;9.05;;;4.68;;
68583;SDS011;55557;49.220;11.150;2023-06-22T13:38:32;10.80;;;3.92;;
68583;SDS011;55557;49.220;11.150;2023-06-22T13:40:58;11.27;;;4.37;;
68583;SDS011;55557;49.220;11.150;2023-06-22T13:43:26;6.43;;;4.15;;
68583;SDS011;55557;49.220;11.150;2023-06-22T13:45:52;12.25;;;4.57;;
68583;SDS011;55557;49.220;11.150;2023-06-22T13:48:18;11.93;;;4.20;;
68583;SDS011;55557;49.220;11.150;2023-06-22T13:50:44;8.27;;;4.03;;
68583;SDS011;55557;49.220;11.150;2023-06-22T13:53:10;12.07;;;3.57;;
68583;SDS011;55557;49.220;11.150;2023-06-22T13:55:36;9.57;;;4.05;;
68583;SDS011;55557;49.220;11.150;2023-06-22T13:58:02;15.23;;;4.30;;
68583;SDS011;55557;49.220;11.150;2023-06-22T14:00:28;10.30;;;3.67;;
68583;SDS011;55557;49.220;11.150;2023-06-22T14:02:54;7.13;;;3.90;;
68583;SDS011;55557;49.220;11.150;2023-06-22T14:05:20;9.45;;;4.50;;
68583;SDS011;55557;49.220;11.150;2023-06-22T14:07:46;7.90;;;3.90;;
68583;SDS011;55557;49.220;11.150;2023-06-22T14:10:12;10.57;;;3.80;;
68583;SDS011;55557;49.220;11.150;2023-06-22T14:12:39;9.43;;;4.13;;
68583;SDS011;55557;49.220;11.150;2023-06-22T14:15:05;12.75;;;4.40;;
68583;SDS011;55557;49.220;11.150;2023-06-22T14:17:31;11.32;;;3.97;;
68583;SDS011;55557;49.220;11.150;2023-06-22T14:19:57;7.45;;;3.67;;
68583;SDS011;55557;49.220;11.150;2023-06-22T14:22:23;10.23;;;4.30;;
68583;SDS011;55557;49.220;11.150;2023-06-22T14:24:49;13.75;;;4.30;;
68583;SDS011;55557;49.220;11.150;2023-06-22T14:27:15;19.92;;;5.15;;